createdAt,value
2019-04-16T00:03:14.443Z,7.83
2019-04-16T00:07:36.698Z,9.30
2019-04-16T00:11:53.097Z,10.17
2019-04-16T00:15:58.470Z,10.87
2019-04-16T00:20:05.680Z,9.50
2019-04-16T00:24:31.017Z,9.70
2019-04-16T00:28:35.543Z,10.60
2019-04-16T00:32:42.568Z,8.10
2019-04-16T00:38:40.932Z,9.07
2019-04-16T00:44:43.597Z,8.87
2019-04-16T00:53:00.117Z,9.33
2019-04-16T01:05:49.578Z,7.40
2019-04-16T01:12:03.448Z,8.17
2019-04-16T01:17:50.946Z,8.37
2019-04-16T01:27:38.211Z,7.00
2019-04-16T01:33:52.287Z,7.97
2019-04-16T01:38:04.960Z,6.13
2019-04-16T01:46:03.394Z,6.83
2019-04-16T01:50:44.673Z,6.23
2019-04-16T01:56:20.083Z,8.43
2019-04-16T02:05:45.452Z,5.43
2019-04-16T02:09:49.986Z,9.63
2019-04-16T02:21:35.348Z,6.33
2019-04-16T02:40:52.797Z,6.27
2019-04-16T02:44:55.582Z,7.40
2019-04-16T02:50:35.976Z,9.60
2019-04-16T02:54:51.036Z,6.70
2019-04-16T02:59:00.497Z,10.10
2019-04-16T03:03:09.757Z,8.50
2019-04-16T03:07:14.321Z,8.67
2019-04-16T03:11:18.805Z,6.87
2019-04-16T03:15:46.868Z,8.50
2019-04-16T03:19:52.087Z,7.93
2019-04-16T03:23:56.862Z,6.37
2019-04-16T03:36:00.775Z,8.60
2019-04-16T03:40:16.229Z,7.93
2019-04-16T03:44:11.549Z,8.47
2019-04-16T03:48:16.097Z,9.23
2019-04-16T03:53:50.351Z,10.03
2019-04-16T04:00:33.467Z,8.30
2019-04-16T04:06:16.568Z,6.97
2019-04-16T04:14:22.138Z,11.60
2019-04-16T04:19:35.299Z,8.23
2019-04-16T04:23:39.864Z,8.90
2019-04-16T04:29:14.752Z,11.97
2019-04-16T04:33:41.366Z,8.77
2019-04-16T04:42:14.019Z,8.37
2019-04-16T04:46:18.669Z,7.27
2019-04-16T04:51:59.773Z,7.07
2019-04-16T04:56:04.430Z,7.63
2019-04-16T05:00:09.754Z,9.67
2019-04-16T05:06:48.015Z,7.00
2019-04-16T05:13:25.951Z,10.67
2019-04-16T05:20:07.990Z,7.23
2019-04-16T05:24:12.529Z,8.40
2019-04-16T05:28:17.038Z,11.23
2019-04-16T05:32:21.820Z,8.27
2019-04-16T05:36:26.508Z,7.80
2019-04-16T05:46:13.653Z,7.43
2019-04-16T05:52:35.868Z,7.73
2019-04-16T05:56:45.724Z,12.43
2019-04-16T06:04:13.197Z,7.20
2019-04-16T06:11:44.387Z,8.83
2019-04-16T06:16:10.911Z,8.27
2019-04-16T06:20:24.281Z,9.57
2019-04-16T06:29:04.879Z,9.30
2019-04-16T06:33:12.906Z,8.80
2019-04-16T06:46:31.083Z,10.73
2019-04-16T06:52:26.292Z,6.97
2019-04-16T06:57:43.018Z,8.90
2019-04-16T07:02:24.019Z,9.43
2019-04-16T07:06:45.233Z,13.77
2019-04-16T07:10:55.092Z,8.77
2019-04-16T07:15:00.938Z,11.90
2019-04-16T07:19:10.183Z,7.87
2019-04-16T07:23:11.700Z,9.53
2019-04-16T07:27:19.561Z,11.73
2019-04-16T07:31:41.174Z,8.23
2019-04-16T07:35:56.434Z,10.63
2019-04-16T07:40:19.913Z,9.87
2019-04-16T07:44:46.257Z,8.83
2019-04-16T07:49:08.565Z,10.40
2019-04-16T07:53:36.533Z,8.70
2019-04-16T07:57:43.953Z,9.63
2019-04-16T08:01:49.413Z,8.23
2019-04-16T08:05:54.015Z,13.07
2019-04-16T08:10:02.053Z,9.20
2019-04-16T08:14:08.924Z,9.45
2019-04-16T08:18:11.025Z,8.50
2019-04-16T08:22:16.587Z,9.13
2019-04-16T08:26:21.874Z,8.75
2019-04-16T08:30:27.483Z,11.70
2019-04-16T08:34:41.880Z,10.40
2019-04-16T08:38:46.821Z,9.20
2019-04-16T08:42:51.526Z,8.20
2019-04-16T08:51:04.674Z,11.60
2019-04-16T08:55:10.110Z,11.03
2019-04-16T08:59:16.070Z,11.93
2019-04-16T09:03:21.300Z,9.77
2019-04-16T09:07:41.884Z,10.00
2019-04-16T09:11:51.662Z,10.93
2019-04-16T09:15:57.537Z,13.43
2019-04-16T09:20:30.161Z,10.33
2019-04-16T09:24:41.379Z,11.30
2019-04-16T09:28:55.545Z,8.23
2019-04-16T09:33:19.196Z,9.23
2019-04-16T09:37:35.763Z,10.33
2019-04-16T09:41:42.240Z,10.83
2019-04-16T09:45:47.165Z,10.70
2019-04-16T09:49:51.701Z,11.53
2019-04-16T09:53:56.361Z,11.67
2019-04-16T09:58:05.874Z,12.00
2019-04-16T10:02:15.539Z,11.13
2019-04-16T10:06:20.057Z,12.37
2019-04-16T10:10:27.859Z,10.47
2019-04-16T10:14:30.814Z,9.27
2019-04-16T10:18:36.010Z,12.07
2019-04-16T10:22:40.755Z,14.37
2019-04-16T10:26:46.985Z,10.43
2019-04-16T10:30:53.213Z,8.67
2019-04-16T10:34:57.784Z,16.30
2019-04-16T10:39:21.426Z,10.40
2019-04-16T10:44:03.384Z,11.53
2019-04-16T10:48:25.138Z,11.20
2019-04-16T10:52:47.549Z,10.50
2019-04-16T10:57:22.250Z,10.83
2019-04-16T11:01:34.959Z,9.83
2019-04-16T11:05:44.977Z,11.03
2019-04-16T11:09:49.547Z,11.03
2019-04-16T11:14:00.096Z,12.00
2019-04-16T11:18:00.806Z,12.63
2019-04-16T11:22:05.713Z,10.70
2019-04-16T11:26:10.366Z,13.45
2019-04-16T11:30:34.128Z,12.43
2019-04-16T11:34:38.706Z,13.20
2019-04-16T11:38:43.533Z,12.53
2019-04-16T11:42:48.058Z,12.60
2019-04-16T11:46:52.636Z,12.83
2019-04-16T11:50:57.331Z,11.27
2019-04-16T11:55:01.865Z,14.97
2019-04-16T11:59:06.621Z,14.73
2019-04-16T12:03:34.921Z,13.70
2019-04-16T12:07:51.358Z,13.43
2019-04-16T12:11:59.970Z,11.77
2019-04-16T12:16:12.515Z,11.33
2019-04-16T12:20:25.526Z,15.37
2019-04-16T12:24:42.671Z,12.53
2019-04-16T12:28:58.096Z,13.13
2019-04-16T12:33:39.991Z,14.57
2019-04-16T12:38:02.298Z,14.77
2019-04-16T12:42:31.816Z,13.10
2019-04-16T12:46:54.210Z,14.50
2019-04-16T12:51:12.178Z,13.97
2019-04-16T12:55:34.458Z,17.37
2019-04-16T12:59:54.637Z,16.93
2019-04-16T13:04:18.828Z,16.10
2019-04-16T13:08:35.856Z,16.23
2019-04-16T13:13:02.279Z,12.17
2019-04-16T13:17:18.766Z,15.60
2019-04-16T13:21:29.285Z,16.43
2019-04-16T13:25:53.857Z,19.00
2019-04-16T13:30:01.275Z,16.40
2019-04-16T13:34:04.718Z,16.10
2019-04-16T13:38:10.245Z,14.60
2019-04-16T13:42:14.932Z,16.90
2019-04-16T13:46:19.465Z,14.47
2019-04-16T13:50:40.763Z,15.53
2019-04-16T13:55:15.203Z,17.57
2019-04-16T13:59:38.696Z,15.95
2019-04-16T14:03:43.252Z,15.33
2019-04-16T14:07:47.808Z,14.98
2019-04-16T14:11:52.413Z,16.05
2019-04-16T14:15:56.988Z,17.17
2019-04-16T14:20:01.594Z,17.10
2019-04-16T14:24:06.174Z,16.05
2019-04-16T14:28:10.679Z,18.62
2019-04-16T14:32:15.238Z,15.95
2019-04-16T14:36:19.813Z,17.27
2019-04-16T14:40:25.014Z,16.03
2019-04-16T14:44:34.729Z,16.73
2019-04-16T14:48:45.485Z,20.77
2019-04-16T14:52:46.637Z,16.43
2019-04-16T14:56:53.608Z,17.53
2019-04-16T15:01:22.935Z,16.93
2019-04-16T15:05:34.804Z,16.27
2019-04-16T15:10:01.091Z,17.33
2019-04-16T15:14:14.140Z,18.70
2019-04-16T15:18:33.810Z,17.20
2019-04-16T15:22:53.866Z,18.50
2019-04-16T15:27:12.420Z,19.37
2019-04-16T15:31:34.856Z,18.40
2019-04-16T15:35:46.806Z,16.73
2019-04-16T15:39:59.230Z,17.97
2019-04-16T15:44:24.743Z,18.13
2019-04-16T15:48:53.325Z,16.80
2019-04-16T15:53:04.624Z,20.27
2019-04-16T15:57:40.232Z,17.93
2019-04-16T16:02:03.758Z,19.87
2019-04-16T16:06:12.381Z,19.65
2019-04-16T16:10:22.449Z,17.52
2019-04-16T16:14:33.217Z,19.57
2019-04-16T16:18:35.702Z,20.13
2019-04-16T16:22:39.593Z,18.40
2019-04-16T16:26:44.156Z,20.65
2019-04-16T16:30:48.683Z,18.35
2019-04-16T16:34:53.252Z,18.10
2019-04-16T16:38:57.812Z,17.00
2019-04-16T16:43:07.015Z,19.32
2019-04-16T16:47:26.196Z,19.60
2019-04-16T16:51:31.010Z,17.80
2019-04-16T16:55:45.810Z,18.75
2019-04-16T17:00:07.954Z,19.60
2019-04-16T17:04:21.170Z,17.20
2019-04-16T17:08:27.076Z,16.87
2019-04-16T17:12:31.964Z,17.63
2019-04-16T17:16:36.477Z,18.55
2019-04-16T17:20:42.073Z,18.27
2019-04-16T17:24:46.776Z,18.17
2019-04-16T17:28:51.331Z,16.75
2019-04-16T17:32:55.904Z,15.90
2019-04-16T17:37:00.441Z,17.98
2019-04-16T17:41:07.742Z,17.00
2019-04-16T17:45:37.700Z,16.97
2019-04-16T17:49:55.519Z,16.40
2019-04-16T17:54:13.790Z,15.35
2019-04-16T17:58:28.196Z,17.02
2019-04-16T18:02:51.648Z,17.37
2019-04-16T18:07:15.134Z,17.00
2019-04-16T18:11:26.436Z,17.95
2019-04-16T18:15:52.963Z,18.77
2019-04-16T18:20:11.649Z,16.35
2019-04-16T18:24:34.072Z,15.38
2019-04-16T18:28:43.821Z,19.20
2019-04-16T18:33:05.673Z,17.07
2019-04-16T18:37:24.880Z,16.50
2019-04-16T18:41:57.551Z,18.42
2019-04-16T18:46:15.351Z,18.03
2019-04-16T18:50:26.015Z,16.60
2019-04-16T18:54:28.952Z,17.70
2019-04-16T18:58:33.560Z,17.90
2019-04-16T19:02:41.907Z,17.07
2019-04-16T19:06:44.299Z,16.42
2019-04-16T19:10:48.937Z,16.42
2019-04-16T19:14:53.560Z,19.25
2019-04-16T19:18:58.144Z,16.27
2019-04-16T19:23:02.746Z,18.05
2019-04-16T19:27:07.381Z,15.78
2019-04-16T19:31:11.949Z,18.13
2019-04-16T19:35:19.077Z,17.55
2019-04-16T19:39:22.729Z,16.55
2019-04-16T19:43:28.446Z,21.33
2019-04-16T19:47:35.336Z,16.10
2019-04-16T19:51:41.250Z,16.70
2019-04-16T19:55:46.553Z,15.35
2019-04-16T19:59:51.252Z,17.60
2019-04-16T20:03:55.820Z,17.90
2019-04-16T20:08:00.391Z,15.63
2019-04-16T20:12:04.950Z,17.13
2019-04-16T20:16:09.485Z,18.02
2019-04-16T20:20:14.104Z,16.52
2019-04-16T20:24:18.742Z,21.13
2019-04-16T20:28:23.316Z,15.73
2019-04-16T20:32:30.954Z,17.90
2019-04-16T20:36:36.052Z,18.93
2019-04-16T20:44:44.109Z,20.70
2019-04-16T20:48:48.674Z,19.57
2019-04-16T20:52:53.463Z,16.77
2019-04-16T20:56:58.068Z,16.52
2019-04-16T21:01:03.268Z,18.17
2019-04-16T21:05:21.425Z,18.05
2019-04-16T21:09:14.275Z,15.40
2019-04-16T21:13:18.831Z,15.88
2019-04-16T21:17:23.407Z,15.03
2019-04-16T21:21:27.993Z,16.80
2019-04-16T21:25:32.611Z,15.20
2019-04-16T21:29:37.208Z,16.42
2019-04-16T21:33:53.085Z,17.05
2019-04-16T21:38:16.736Z,15.00
2019-04-16T21:42:21.282Z,19.48
2019-04-16T21:46:25.848Z,14.90
2019-04-16T21:50:30.416Z,14.78
2019-04-16T21:54:35.004Z,15.50
2019-04-16T21:58:39.554Z,16.42
2019-04-16T22:02:44.908Z,16.90
2019-04-16T22:06:52.548Z,15.83
2019-04-16T22:10:55.968Z,17.70
2019-04-16T22:15:00.544Z,17.97
2019-04-16T22:19:05.232Z,16.65
2019-04-16T22:23:09.811Z,15.90
2019-04-16T22:27:14.383Z,17.40
2019-04-16T22:31:20.853Z,16.40
2019-04-16T22:35:25.169Z,15.40
2019-04-16T22:39:43.200Z,16.67
2019-04-16T22:44:04.191Z,18.02
2019-04-16T22:48:08.784Z,15.45
2019-04-16T22:52:13.359Z,14.85
2019-04-16T22:56:18.074Z,17.52
2019-04-16T23:00:32.078Z,16.00
2019-04-16T23:04:36.600Z,16.42
2019-04-16T23:08:43.531Z,17.50
2019-04-16T23:12:47.387Z,18.50
2019-04-16T23:16:51.985Z,16.02
2019-04-16T23:20:56.596Z,18.63
2019-04-16T23:25:01.305Z,15.63
2019-04-16T23:29:05.920Z,14.75
2019-04-16T23:33:10.587Z,14.45
2019-04-16T23:37:15.189Z,14.45
2019-04-16T23:41:19.724Z,15.37
2019-04-16T23:45:45.415Z,15.72
2019-04-16T23:49:56.468Z,13.35
2019-04-16T23:54:07.913Z,13.13
2019-04-16T23:58:21.625Z,14.57
